Time;durP1;ratioP1;P1;durP2;ratioP2;P2;SDS_P1;SDS_P2;PMS_P1;PMS_P2;Temp;Humidity;BMP_temperature;BMP_pressure;BME280_temperature;BME280_humidity;BME280_pressure;Samples;Min_cycle;Max_cycle;Signal;HPM_P1;HPM_P2
2022/07/22 00:02:15;;;;;;;6.10;5.20;;;20.50;99.90;;;;;;5074215;28;20103;-53
2022/07/22 00:04:40;;;;;;;6.22;5.18;;;20.50;99.90;;;;;;5074242;28;20108;-50
2022/07/22 00:07:06;;;;;;;6.97;5.13;;;20.40;99.90;;;;;;5073518;28;20017;-50
2022/07/22 00:09:32;;;;;;;7.30;5.65;;;20.40;99.90;;;;;;5074194;28;20428;-51
2022/07/22 00:11:57;;;;;;;8.52;5.57;;;20.40;99.90;;;;;;5073688;28;20100;-50
2022/07/22 00:14:23;;;;;;;12.73;7.70;;;20.40;99.90;;;;;;5073959;28;20105;-51
2022/07/22 00:16:48;;;;;;;10.82;6.45;;;20.40;99.90;;;;;;5082747;22;20088;-49
2022/07/22 00:19:14;;;;;;;8.98;6.78;;;20.30;99.90;;;;;;5033762;28;20060;-45
2022/07/22 00:21:40;;;;;;;9.23;8.35;;;20.30;99.90;;;;;;5034025;28;20408;-47
2022/07/22 00:24:06;;;;;;;7.43;6.05;;;20.20;99.90;;;;;;5033811;28;20397;-49
2022/07/22 00:26:31;;;;;;;10.70;6.35;;;20.00;99.90;;;;;;5033919;28;20436;-42
2022/07/22 00:28:57;;;;;;;7.47;6.20;;;19.90;99.90;;;;;;5033229;28;20029;-47
2022/07/22 00:31:22;;;;;;;11.30;6.78;;;19.90;99.90;;;;;;5033805;28;20060;-48
2022/07/22 00:33:48;;;;;;;9.43;6.22;;;19.80;99.90;;;;;;5033654;28;20034;-48
2022/07/22 00:36:13;;;;;;;8.07;5.85;;;19.80;99.90;;;;;;5034151;28;20022;-43
2022/07/22 00:38:39;;;;;;;8.77;6.50;;;19.70;99.90;;;;;;5032781;28;20493;-47
2022/07/22 00:41:04;;;;;;;6.93;6.30;;;19.60;99.90;;;;;;5033622;28;20456;-51
2022/07/22 00:43:49;;;;;;;7.90;6.38;;;19.60;99.90;;;;;;5033401;28;20037;-47
2022/07/22 00:46:14;;;;;;;9.98;6.63;;;19.60;99.90;;;;;;5033530;28;20159;-46
2022/07/22 00:48:40;;;;;;;8.38;6.25;;;19.50;99.90;;;;;;5032747;28;20541;-44
2022/07/22 00:51:05;;;;;;;7.72;6.20;;;19.50;99.90;;;;;;5033589;28;20026;-49
2022/07/22 00:53:31;;;;;;;8.52;6.07;;;19.50;99.90;;;;;;5033287;28;20037;-48
2022/07/22 00:55:56;;;;;;;7.85;5.90;;;19.50;99.90;;;;;;5033377;28;20067;-47
2022/07/22 00:58:22;;;;;;;8.88;6.03;;;19.50;99.90;;;;;;5032331;28;20068;-48
2022/07/22 01:00:47;;;;;;;9.57;7.28;;;19.40;99.90;;;;;;5033190;28;20490;-46
2022/07/22 01:03:13;;;;;;;8.90;6.35;;;19.40;99.90;;;;;;5033063;28;20485;-47
2022/07/22 01:05:39;;;;;;;9.45;6.43;;;19.40;99.90;;;;;;5033112;28;20103;-47
2022/07/22 01:08:08;;;;;;;10.68;6.47;;;19.40;99.90;;;;;;5032469;28;20025;-49
2022/07/22 01:10:33;;;;;;;7.07;6.32;;;19.30;99.90;;;;;;5033003;28;20053;-48
2022/07/22 01:12:59;;;;;;;8.38;6.80;;;19.30;99.90;;;;;;5032868;28;20079;-47
2022/07/22 01:15:24;;;;;;;10.32;6.68;;;19.30;99.90;;;;;;5032986;28;20031;-46
2022/07/22 01:17:50;;;;;;;7.93;6.45;;;19.30;99.90;;;;;;5032082;28;20037;-46
2022/07/22 01:20:15;;;;;;;7.60;6.72;;;19.30;99.90;;;;;;5032936;28;20030;-46
2022/07/22 01:22:41;;;;;;;9.57;6.68;;;19.30;99.90;;;;;;5032899;28;20478;-41
2022/07/22 01:25:07;;;;;;;9.48;6.68;;;19.20;99.90;;;;;;5032054;28;20113;-50
2022/07/22 01:27:32;;;;;;;12.18;6.78;;;19.20;99.90;;;;;;5031879;28;20018;-47
2022/07/22 01:29:58;;;;;;;10.90;8.00;;;19.00;99.90;;;;;;5032714;28;20105;-44
2022/07/22 01:32:23;;;;;;;9.73;6.60;;;19.00;99.90;;;;;;5032345;28;20129;-47
2022/07/22 01:34:49;;;;;;;13.65;8.27;;;19.00;99.90;;;;;;5032489;28;20032;-44
2022/07/22 01:37:14;;;;;;;11.35;8.18;;;18.90;99.90;;;;;;5031765;28;20520;-49
2022/07/22 01:39:40;;;;;;;14.50;7.97;;;18.90;99.90;;;;;;5033054;28;20022;-44
2022/07/22 01:42:05;;;;;;;8.93;8.00;;;18.90;99.90;;;;;;5032257;28;20029;-48
2022/07/22 01:44:31;;;;;;;9.38;7.80;;;18.90;99.90;;;;;;5032417;28;20118;-44
2022/07/22 01:46:58;;;;;;;10.23;7.45;;;18.90;99.90;;;;;;5031626;28;20021;-46
2022/07/22 01:49:24;;;;;;;10.85;7.68;;;18.90;99.90;;;;;;5032239;28;20021;-48
2022/07/22 01:51:50;;;;;;;11.13;7.07;;;18.90;99.90;;;;;;5032305;28;20100;-49
2022/07/22 01:54:15;;;;;;;12.27;7.90;;;18.90;99.90;;;;;;5032186;28;20032;-48
2022/07/22 01:56:41;;;;;;;12.93;8.55;;;18.80;99.90;;;;;;5031964;28;20025;-46
2022/07/22 01:59:07;;;;;;;9.40;8.05;;;18.80;99.90;;;;;;5032076;28;20104;-47
2022/07/22 02:01:33;;;;;;;16.58;7.97;;;18.80;99.90;;;;;;5031991;28;20022;-49
2022/07/22 02:03:58;;;;;;;9.77;7.82;;;18.70;99.90;;;;;;5031938;28;20032;-50
2022/07/22 02:06:24;;;;;;;12.60;7.80;;;18.80;99.90;;;;;;5032024;28;20053;-47
2022/07/22 02:08:49;;;;;;;12.70;8.45;;;18.80;99.90;;;;;;5031321;28;20071;-46
2022/07/22 02:11:15;;;;;;;9.90;7.70;;;18.80;99.90;;;;;;5031700;28;20098;-45
2022/07/22 02:13:41;;;;;;;7.50;6.80;;;18.80;99.90;;;;;;5031809;28;20040;-48
2022/07/22 02:16:06;;;;;;;10.88;7.82;;;18.80;99.90;;;;;;5031791;28;20485;-43
2022/07/22 02:18:31;;;;;;;16.38;7.75;;;18.80;99.90;;;;;;5030954;28;20041;-46
2022/07/22 02:20:57;;;;;;;9.85;7.90;;;18.80;99.90;;;;;;5031834;28;20026;-46
2022/07/22 02:23:23;;;;;;;10.70;8.45;;;18.80;99.90;;;;;;5031599;28;20033;-47
2022/07/22 02:25:48;;;;;;;10.90;7.72;;;18.80;99.90;;;;;;5031628;28;20025;-42
2022/07/22 02:28:14;;;;;;;11.10;7.60;;;18.80;99.90;;;;;;5030870;28;20026;-46
2022/07/22 02:30:39;;;;;;;13.48;8.27;;;18.80;99.90;;;;;;5031835;28;20033;-50
2022/07/22 02:33:05;;;;;;;10.75;7.75;;;18.80;99.90;;;;;;5031564;28;20033;-45
2022/07/22 02:35:31;;;;;;;9.75;7.60;;;18.80;99.90;;;;;;5031501;28;20048;-43
2022/07/22 02:37:57;;;;;;;12.00;7.78;;;18.80;99.90;;;;;;5030907;28;20064;-46
2022/07/22 02:40:22;;;;;;;8.85;7.07;;;18.80;99.90;;;;;;5031897;28;20030;-45
2022/07/22 02:42:48;;;;;;;8.20;7.05;;;18.80;99.90;;;;;;5031430;28;20032;-45
2022/07/22 02:45:13;;;;;;;9.90;7.55;;;18.80;99.90;;;;;;5031636;28;20030;-43
2022/07/22 02:47:51;;;;;;;17.25;7.53;;;18.80;99.90;;;;;;5031440;28;20052;-45
2022/07/22 02:50:16;;;;;;;10.80;7.68;;;18.80;99.90;;;;;;5032971;28;20596;-49
2022/07/22 02:52:42;;;;;;;10.52;7.22;;;18.80;99.90;;;;;;5031485;28;20117;-44
2022/07/22 02:55:08;;;;;;;9.75;7.03;;;18.80;99.90;;;;;;5031342;28;20061;-45
2022/07/22 02:57:34;;;;;;;9.75;7.97;;;18.80;99.90;;;;;;5031148;28;20033;-43
2022/07/22 02:59:59;;;;;;;8.35;7.50;;;18.80;99.90;;;;;;5031347;28;20025;-47
2022/07/22 03:02:26;;;;;;;10.80;7.63;;;18.70;99.90;;;;;;5031187;28;20025;-49
2022/07/22 03:04:51;;;;;;;8.65;7.07;;;18.70;99.90;;;;;;5031152;28;20064;-50
2022/07/22 03:07:17;;;;;;;7.93;7.18;;;18.80;99.90;;;;;;5030486;28;20056;-47
2022/07/22 03:09:43;;;;;;;8.38;6.55;;;18.70;99.90;;;;;;5030823;28;20040;-44
2022/07/22 03:12:08;;;;;;;11.10;7.85;;;18.70;99.90;;;;;;5031259;28;20370;-45
2022/07/22 03:14:34;;;;;;;10.18;7.95;;;18.80;99.90;;;;;;5031149;28;20037;-50
2022/07/22 03:16:59;;;;;;;10.68;8.07;;;18.80;99.90;;;;;;5030222;28;20400;-50
2022/07/22 03:19:25;;;;;;;11.27;8.10;;;18.70;99.90;;;;;;5031300;28;20397;-49
2022/07/22 03:21:50;;;;;;;9.52;7.43;;;18.70;99.90;;;;;;5031085;28;20489;-44
2022/07/22 03:24:16;;;;;;;9.70;7.35;;;18.70;99.90;;;;;;5030798;28;20037;-48
2022/07/22 03:26:41;;;;;;;10.23;7.75;;;18.60;99.90;;;;;;5030875;28;20482;-45
2022/07/22 03:29:07;;;;;;;10.55;8.05;;;18.60;99.90;;;;;;5030595;28;20489;-46
2022/07/22 03:31:33;;;;;;;11.77;7.40;;;18.60;99.90;;;;;;5031083;28;20496;-46
2022/07/22 03:34:00;;;;;;;13.90;8.65;;;18.50;99.90;;;;;;5030957;28;20401;-50
2022/07/22 03:36:27;;;;;;;10.93;8.13;;;18.50;99.90;;;;;;5031297;28;20029;-46
2022/07/22 03:38:52;;;;;;;16.30;8.40;;;18.50;99.90;;;;;;5030016;28;20021;-49
2022/07/22 03:41:18;;;;;;;10.52;8.60;;;18.40;99.90;;;;;;5031072;28;20398;-48
2022/07/22 03:43:43;;;;;;;12.18;8.82;;;18.40;99.90;;;;;;5030998;28;20037;-48
2022/07/22 03:46:09;;;;;;;14.43;9.25;;;18.40;99.90;;;;;;5030962;28;20027;-49
2022/07/22 03:48:35;;;;;;;9.00;8.00;;;18.40;99.90;;;;;;5033063;28;20100;-45
2022/07/22 03:51:01;;;;;;;13.95;8.45;;;18.40;99.90;;;;;;5034701;28;20026;-43
2022/07/22 03:53:26;;;;;;;10.32;8.32;;;18.40;99.90;;;;;;5034900;28;20025;-44
2022/07/22 03:55:51;;;;;;;11.75;8.07;;;18.50;99.90;;;;;;5034561;28;20040;-49
2022/07/22 03:58:20;;;;;;;10.35;7.40;;;18.50;99.90;;;;;;5033601;28;20576;-45
2022/07/22 04:00:46;;;;;;;13.30;8.05;;;18.50;99.90;;;;;;5034262;28;20033;-47
2022/07/22 04:03:11;;;;;;;11.23;7.90;;;18.50;99.90;;;;;;5034257;28;20022;-47
2022/07/22 04:05:37;;;;;;;13.82;8.27;;;18.50;99.90;;;;;;5034284;28;20052;-44
2022/07/22 04:08:02;;;;;;;9.32;7.35;;;18.40;99.90;;;;;;5033346;28;20087;-47
2022/07/22 04:10:28;;;;;;;9.48;7.07;;;18.50;99.90;;;;;;5034166;28;20021;-48
2022/07/22 04:12:54;;;;;;;11.32;8.02;;;18.40;99.90;;;;;;5034034;28;20030;-48
2022/07/22 04:15:19;;;;;;;13.60;7.68;;;18.40;99.90;;;;;;5034088;28;20030;-44
2022/07/22 04:17:45;;;;;;;11.00;7.63;;;18.40;99.90;;;;;;5033488;28;20476;-50
2022/07/22 04:20:10;;;;;;;9.63;7.15;;;18.40;99.90;;;;;;5016538;28;20082;-48
2022/07/22 04:22:36;;;;;;;11.02;7.40;;;18.50;99.90;;;;;;5033755;28;20421;-47
2022/07/22 04:25:01;;;;;;;11.57;7.65;;;18.50;99.90;;;;;;5034115;28;20083;-43
2022/07/22 04:27:27;;;;;;;10.75;8.07;;;18.50;99.90;;;;;;5033049;28;20473;-49
2022/07/22 04:29:52;;;;;;;12.02;7.85;;;18.60;99.90;;;;;;5033987;28;20028;-47
2022/07/22 04:32:18;;;;;;;11.68;7.53;;;18.60;99.90;;;;;;5033753;28;20017;-47
2022/07/22 04:34:44;;;;;;;10.13;7.47;;;18.60;99.90;;;;;;5033722;28;20075;-45
2022/07/22 04:37:09;;;;;;;11.32;8.10;;;18.70;99.90;;;;;;5032726;28;20030;-44
2022/07/22 04:39:34;;;;;;;8.93;8.02;;;18.70;99.90;;;;;;5033633;28;20623;-46
2022/07/22 04:42:00;;;;;;;9.50;7.53;;;18.70;99.90;;;;;;5033522;28;20033;-49
2022/07/22 04:44:25;;;;;;;9.73;7.60;;;18.70;99.90;;;;;;5033466;28;20029;-52
2022/07/22 04:46:51;;;;;;;12.15;8.30;;;18.70;99.90;;;;;;5032878;28;20035;-50
2022/07/22 04:49:16;;;;;;;9.60;7.68;;;18.80;99.90;;;;;;5033444;28;20100;-46
2022/07/22 04:51:42;;;;;;;8.93;7.28;;;18.90;99.90;;;;;;5033285;28;20033;-47
2022/07/22 04:54:07;;;;;;;11.20;7.97;;;19.00;99.90;;;;;;5033321;28;20029;-45
2022/07/22 04:56:33;;;;;;;10.68;7.22;;;19.20;99.90;;;;;;5033187;28;20413;-46
2022/07/22 04:58:58;;;;;;;10.05;7.25;;;19.40;99.90;;;;;;5031346;28;20451;-46
2022/07/22 05:01:24;;;;;;;8.27;6.68;;;19.40;99.90;;;;;;5033170;28;20036;-49
2022/07/22 05:03:51;;;;;;;11.48;7.97;;;19.50;99.90;;;;;;5033006;28;20472;-46
2022/07/22 05:06:17;;;;;;;10.73;6.82;;;19.60;99.90;;;;;;5032910;28;20112;-49
2022/07/22 05:08:43;;;;;;;10.75;8.10;;;19.90;99.90;;;;;;5032369;28;20104;-46
2022/07/22 05:11:08;;;;;;;11.43;8.40;;;20.20;99.90;;;;;;5032985;28;20017;-45
2022/07/22 05:13:34;;;;;;;20.05;9.43;;;20.40;99.90;;;;;;5033028;28;20033;-49
2022/07/22 05:16:03;;;;;;;15.40;7.63;;;20.40;99.90;;;;;;5032739;28;20516;-51
2022/07/22 05:18:29;;;;;;;9.25;6.88;;;20.70;99.90;;;;;;5031989;28;20059;-49
2022/07/22 05:20:54;;;;;;;8.70;5.85;;;21.40;99.90;;;;;;5032706;28;20025;-48
2022/07/22 05:23:20;;;;;;;7.95;5.50;;;22.20;99.90;;;;;;5032820;28;20043;-48
2022/07/22 05:25:45;;;;;;;9.48;5.43;;;23.10;99.90;;;;;;5032839;28;20244;-46
2022/07/22 05:28:11;;;;;;;10.05;7.40;;;23.80;99.90;;;;;;5031841;28;20029;-47
2022/07/22 05:30:36;;;;;;;8.35;5.82;;;24.60;99.60;;;;;;5032718;28;20025;-46
2022/07/22 05:33:02;;;;;;;8.90;5.63;;;25.20;98.10;;;;;;5032486;28;20026;-50
2022/07/22 05:35:28;;;;;;;11.70;6.00;;;25.60;97.40;;;;;;5032506;28;20473;-47
2022/07/22 05:37:53;;;;;;;8.68;5.22;;;25.50;96.90;;;;;;5032250;28;20101;-47
2022/07/22 05:40:19;;;;;;;6.97;5.68;;;25.90;96.60;;;;;;5032613;28;20052;-45
2022/07/22 05:42:44;;;;;;;6.68;5.28;;;26.20;96.20;;;;;;5031265;28;20061;-51
2022/07/22 05:45:10;;;;;;;7.28;5.28;;;27.00;95.00;;;;;;5032241;28;20033;-47
2022/07/22 05:47:35;;;;;;;6.80;5.10;;;27.40;93.90;;;;;;5031647;28;20370;-47
2022/07/22 05:50:00;;;;;;;6.97;5.22;;;27.30;93.50;;;;;;5032171;28;20026;-47
2022/07/22 05:52:26;;;;;;;8.88;5.43;;;27.50;93.40;;;;;;5032614;28;20473;-46
2022/07/22 05:54:52;;;;;;;13.48;5.45;;;27.90;92.00;;;;;;5032406;28;20035;-47
2022/07/22 05:57:17;;;;;;;6.00;5.38;;;27.80;91.80;;;;;;5031690;28;20049;-50
2022/07/22 05:59:42;;;;;;;8.40;5.95;;;28.00;92.00;;;;;;5033519;28;20037;-45
2022/07/22 06:02:08;;;;;;;7.03;4.95;;;27.90;91.40;;;;;;5032728;28;20108;-47
2022/07/22 06:04:33;;;;;;;6.75;5.03;;;28.20;91.00;;;;;;5031923;28;20021;-46
2022/07/22 06:06:59;;;;;;;6.10;4.93;;;27.50;91.40;;;;;;5013355;28;20067;-47
2022/07/22 06:09:25;;;;;;;8.00;5.00;;;27.50;91.40;;;;;;5032595;28;20448;-51
2022/07/22 06:11:50;;;;;;;7.15;4.97;;;27.80;91.40;;;;;;5031630;28;20055;-51
2022/07/22 06:14:16;;;;;;;5.47;4.72;;;27.70;90.90;;;;;;5031864;28;20037;-48
2022/07/22 06:16:47;;;;;;;5.57;5.05;;;28.10;90.90;;;;;;5031772;28;20025;-47
2022/07/22 06:19:13;;;;;;;6.53;4.68;;;28.50;90.20;;;;;;5008924;22;20092;-49
2022/07/22 06:21:39;;;;;;;5.22;4.63;;;28.90;89.60;;;;;;4989736;28;20026;-48
2022/07/22 06:24:05;;;;;;;5.03;4.38;;;29.10;88.30;;;;;;4989694;28;20056;-49
2022/07/22 06:26:30;;;;;;;5.88;4.43;;;28.90;88.70;;;;;;4989803;28;20409;-48
2022/07/22 06:28:56;;;;;;;5.47;4.45;;;28.90;88.80;;;;;;4989081;28;20394;-50
2022/07/22 06:31:21;;;;;;;5.32;4.57;;;29.40;88.20;;;;;;4989741;28;20022;-50
2022/07/22 06:33:47;;;;;;;8.07;5.20;;;30.10;85.80;;;;;;4989365;28;20034;-46
2022/07/22 06:36:14;;;;;;;8.05;4.95;;;30.10;85.60;;;;;;4989528;28;20164;-49
2022/07/22 06:38:39;;;;;;;8.23;5.65;;;29.70;86.50;;;;;;4988716;28;20026;-52
2022/07/22 06:41:05;;;;;;;5.85;4.60;;;30.00;85.70;;;;;;4989642;28;20096;-49
2022/07/22 06:43:30;;;;;;;6.32;4.97;;;30.10;84.50;;;;;;4988704;28;20106;-50
2022/07/22 06:45:56;;;;;;;5.78;4.88;;;29.90;85.00;;;;;;4989529;28;20490;-51
2022/07/22 06:48:22;;;;;;;5.72;4.90;;;30.00;85.30;;;;;;4988456;28;20387;-50
2022/07/22 06:50:47;;;;;;;9.60;5.97;;;29.50;85.80;;;;;;4989667;28;20482;-50
2022/07/22 06:53:13;;;;;;;9.00;4.40;;;29.60;85.50;;;;;;4989357;28;20516;-46
2022/07/22 06:55:39;;;;;;;7.60;5.40;;;29.70;85.50;;;;;;4989851;28;20026;-48
2022/07/22 06:58:04;;;;;;;7.28;4.90;;;29.70;85.40;;;;;;4989113;28;20023;-48
2022/07/22 07:00:30;;;;;;;9.55;5.25;;;30.10;85.30;;;;;;4987084;28;20029;-54
2022/07/22 07:02:59;;;;;;;8.43;5.25;;;30.20;82.60;;;;;;4974515;28;20099;-47
2022/07/22 07:05:28;;;;;;;5.90;4.28;;;30.50;82.30;;;;;;4969860;28;20566;-48
2022/07/22 07:07:55;;;;;;;7.90;4.10;;;31.40;80.30;;;;;;4983050;28;20429;-52
2022/07/22 07:10:21;;;;;;;5.63;4.63;;;32.20;79.90;;;;;;4990745;28;20083;-51
2022/07/22 07:12:47;;;;;;;5.05;4.65;;;32.90;78.40;;;;;;4992140;28;20058;-49
2022/07/22 07:15:12;;;;;;;7.00;3.95;;;32.90;76.30;;;;;;4991002;28;20510;-48
2022/07/22 07:17:38;;;;;;;4.18;3.75;;;32.70;76.20;;;;;;4988297;28;20039;-48
2022/07/22 07:20:05;;;;;;;7.13;4.50;;;33.00;76.10;;;;;;4989611;28;20031;-48
2022/07/22 07:22:31;;;;;;;6.15;4.75;;;33.60;74.30;;;;;;4988759;28;20065;-50
2022/07/22 07:25:01;;;;;;;9.65;4.82;;;33.40;74.40;;;;;;5004903;28;20063;-49
2022/07/22 07:27:26;;;;;;;9.07;5.20;;;32.80;75.10;;;;;;4990937;28;20497;-48
2022/07/22 07:29:52;;;;;;;6.60;5.75;;;32.20;76.00;;;;;;4992535;28;20034;-50
2022/07/22 07:32:17;;;;;;;6.47;5.85;;;32.00;76.10;;;;;;4992250;28;20014;-50
2022/07/22 07:34:43;;;;;;;11.65;6.22;;;32.20;75.20;;;;;;4992452;28;20508;-48
2022/07/22 07:37:09;;;;;;;7.72;6.00;;;32.20;75.70;;;;;;4989685;28;20046;-52
2022/07/22 07:39:34;;;;;;;8.60;6.10;;;32.40;75.50;;;;;;4992626;28;20030;-49
2022/07/22 07:42:00;;;;;;;5.80;5.18;;;32.30;75.50;;;;;;4992310;28;20482;-47
2022/07/22 07:44:26;;;;;;;8.57;6.38;;;32.40;75.20;;;;;;4992166;28;20097;-48
2022/07/22 07:46:52;;;;;;;11.50;5.78;;;32.60;74.90;;;;;;4991730;28;20023;-50
2022/07/22 07:49:17;;;;;;;7.03;6.03;;;32.00;75.10;;;;;;4993706;28;20030;-51
2022/07/22 07:51:43;;;;;;;7.22;5.60;;;30.70;78.20;;;;;;4992245;28;20033;-48
2022/07/22 07:54:08;;;;;;;12.57;5.30;;;29.80;80.80;;;;;;4992116;28;20069;-49
2022/07/22 07:56:34;;;;;;;8.30;5.05;;;29.40;82.10;;;;;;4992142;28;20114;-51
2022/07/22 07:58:59;;;;;;;6.07;5.43;;;29.60;82.70;;;;;;4990253;28;20034;-49
2022/07/22 08:01:25;;;;;;;7.93;5.35;;;29.90;80.20;;;;;;4992008;28;20068;-48
2022/07/22 08:03:50;;;;;;;6.88;5.53;;;29.20;81.70;;;;;;4991979;28;20030;-49
2022/07/22 08:06:16;;;;;;;6.40;5.53;;;29.00;83.00;;;;;;4991996;28;20557;-50
2022/07/22 08:08:41;;;;;;;14.45;5.90;;;29.00;82.80;;;;;;4991000;28;20018;-47
2022/07/22 08:11:07;;;;;;;8.68;6.25;;;29.00;82.00;;;;;;4991926;28;20041;-52
2022/07/22 08:13:33;;;;;;;7.03;4.57;;;29.20;82.40;;;;;;4992033;28;20447;-46
2022/07/22 08:15:58;;;;;;;6.18;5.28;;;29.80;82.20;;;;;;4992011;28;20033;-49
2022/07/22 08:18:24;;;;;;;6.15;5.30;;;30.70;79.60;;;;;;4991335;28;20038;-51
2022/07/22 08:20:50;;;;;;;7.82;5.75;;;30.90;79.20;;;;;;4992110;28;20167;-48
2022/07/22 08:23:16;;;;;;;6.97;5.22;;;31.80;77.50;;;;;;4991516;28;20101;-48
2022/07/22 08:25:41;;;;;;;6.30;4.18;;;32.10;76.00;;;;;;4991869;28;20048;-47
2022/07/22 08:28:07;;;;;;;6.47;4.20;;;32.20;76.40;;;;;;4990952;28;20019;-47
2022/07/22 08:30:33;;;;;;;5.47;4.97;;;32.70;76.20;;;;;;4991728;28;20058;-47
2022/07/22 08:32:58;;;;;;;5.10;4.60;;;32.80;74.50;;;;;;4991194;28;20019;-47
2022/07/22 08:35:24;;;;;;;6.15;4.95;;;33.00;74.30;;;;;;4991597;28;20088;-47
2022/07/22 08:37:50;;;;;;;7.40;4.40;;;33.30;74.10;;;;;;4989710;28;20033;-47
2022/07/22 08:40:17;;;;;;;7.78;5.18;;;33.40;73.40;;;;;;4991630;28;20033;-50
2022/07/22 08:42:44;;;;;;;5.20;4.68;;;32.60;73.20;;;;;;4991468;28;20501;-48
2022/07/22 08:45:10;;;;;;;5.10;4.57;;;31.80;75.20;;;;;;4991243;28;20031;-47
2022/07/22 08:47:37;;;;;;;4.53;4.10;;;31.60;76.20;;;;;;4989135;28;20029;-47
2022/07/22 08:50:03;;;;;;;5.75;4.95;;;31.30;76.20;;;;;;4990833;28;20026;-48
2022/07/22 08:52:29;;;;;;;8.73;5.45;;;30.90;77.00;;;;;;4990965;28;20375;-48
2022/07/22 08:54:55;;;;;;;8.88;5.57;;;30.40;77.70;;;;;;4991271;28;20152;-47
2022/07/22 08:57:21;;;;;;;7.75;5.85;;;29.70;79.20;;;;;;4988856;28;20122;-49
2022/07/22 08:59:50;;;;;;;8.85;4.75;;;29.30;80.80;;;;;;5005892;28;20097;-49
2022/07/22 09:02:16;;;;;;;11.25;5.05;;;29.40;81.30;;;;;;4988180;28;20050;-50
2022/07/22 09:05:02;;;;;;;5.50;4.97;;;29.70;81.60;;;;;;4981906;28;20062;-48
2022/07/22 09:07:32;;;;;;;9.88;5.53;;;29.80;80.00;;;;;;4988351;28;20509;-50
2022/07/22 09:09:58;;;;;;;6.03;5.50;;;29.70;80.00;;;;;;4990531;28;20038;-52
2022/07/22 09:12:27;;;;;;;6.95;5.03;;;29.30;80.50;;;;;;4990248;28;20034;-47
2022/07/22 09:14:54;;;;;;;4.70;4.30;;;29.30;81.10;;;;;;4990508;28;20033;-48
2022/07/22 09:17:28;;;;;;;6.55;5.05;;;29.30;81.00;;;;;;4989455;28;20045;-51
2022/07/22 09:19:58;;;;;;;4.90;4.45;;;29.40;79.80;;;;;;4990887;28;20035;-47
2022/07/22 09:22:39;;;;;;;4.97;4.57;;;29.40;80.50;;;;;;4990983;28;20030;-49
2022/07/22 09:25:33;;;;;;;4.75;3.90;;;29.40;80.70;;;;;;4971349;28;20024;-48
2022/07/22 09:28:05;;;;;;;6.10;3.97;;;29.60;80.40;;;;;;4974579;28;20018;-51
2022/07/22 09:30:32;;;;;;;5.15;3.95;;;29.70;80.90;;;;;;4990438;28;20303;-48
2022/07/22 09:32:57;;;;;;;8.57;3.85;;;30.10;81.70;;;;;;4990083;28;20026;-51
2022/07/22 09:35:24;;;;;;;5.65;5.00;;;30.40;81.60;;;;;;4990284;28;20034;-48
2022/07/22 09:37:52;;;;;;;8.32;4.70;;;30.50;79.10;;;;;;4985385;28;20483;-46
2022/07/22 09:40:24;;;;;;;7.55;5.35;;;30.50;78.30;;;;;;4971333;28;20050;-48
2022/07/22 09:42:52;;;;;;;5.88;4.13;;;29.60;78.30;;;;;;4976670;28;20030;-49
2022/07/22 09:45:19;;;;;;;5.22;4.78;;;28.80;79.20;;;;;;4970054;28;20023;-53
2022/07/22 09:47:45;;;;;;;7.95;6.32;;;28.30;80.60;;;;;;4970490;28;20030;-49
2022/07/22 09:50:26;;;;;;;6.15;5.60;;;28.30;81.70;;;;;;4971458;28;20030;-51
2022/07/22 09:52:54;;;;;;;4.45;4.05;;;28.10;82.20;;;;;;4971640;28;20069;-49
2022/07/22 09:55:21;;;;;;;7.38;4.93;;;28.20;83.80;;;;;;4986073;28;20026;-53
2022/07/22 09:57:48;;;;;;;5.07;4.38;;;28.40;81.70;;;;;;4989920;28;20069;-50
2022/07/22 10:00:17;;;;;;;7.43;4.32;;;28.10;82.60;;;;;;4990494;28;20034;-53
2022/07/22 10:02:52;;;;;;;5.03;4.53;;;28.10;82.60;;;;;;4991048;28;20030;-52
2022/07/22 10:05:26;;;;;;;9.73;5.30;;;28.20;82.40;;;;;;4975987;28;20027;-53
2022/07/22 10:07:52;;;;;;;6.43;4.93;;;28.00;83.10;;;;;;4989909;28;20037;-51
2022/07/22 10:10:20;;;;;;;5.20;4.75;;;27.90;82.90;;;;;;4978162;28;20034;-52
2022/07/22 10:12:50;;;;;;;5.60;5.00;;;27.50;82.00;;;;;;4977586;28;20069;-49
2022/07/22 10:15:16;;;;;;;5.18;4.70;;;27.20;82.80;;;;;;4980846;28;20091;-52
2022/07/22 10:17:49;;;;;;;4.43;3.95;;;27.40;83.10;;;;;;4988752;28;20026;-50
2022/07/22 10:20:20;;;;;;;5.20;4.38;;;27.60;83.60;;;;;;4990008;28;20061;-48
2022/07/22 10:22:49;;;;;;;7.93;5.18;;;27.90;83.30;;;;;;4990192;28;20030;-48
2022/07/22 10:25:18;;;;;;;5.95;4.43;;;28.10;81.30;;;;;;4989978;28;20425;-47
2022/07/22 10:27:46;;;;;;;4.47;4.07;;;28.10;81.50;;;;;;4987235;28;20046;-49
2022/07/22 10:30:14;;;;;;;9.85;4.85;;;28.10;81.70;;;;;;4988420;28;20022;-45
2022/07/22 10:32:40;;;;;;;5.05;4.65;;;28.10;82.30;;;;;;4988921;28;20027;-51
2022/07/22 10:35:09;;;;;;;4.60;4.20;;;28.10;81.80;;;;;;4989489;28;20056;-50
2022/07/22 10:37:34;;;;;;;4.97;4.47;;;28.10;82.10;;;;;;4987836;28;20022;-48
2022/07/22 10:40:15;;;;;;;6.35;5.10;;;28.10;80.70;;;;;;5003791;28;20060;-49
2022/07/22 10:43:08;;;;;;;6.05;4.60;;;27.90;81.80;;;;;;4989786;28;20027;-47
2022/07/22 10:45:54;;;;;;;7.80;4.57;;;27.70;81.40;;;;;;4989482;28;20062;-46
2022/07/22 10:48:22;;;;;;;19.58;15.35;;;27.50;82.70;;;;;;4988924;28;20050;-49
2022/07/22 10:50:50;;;;;;;9.15;6.72;;;27.40;82.80;;;;;;4989557;28;20093;-48
2022/07/22 10:53:20;;;;;;;7.13;5.13;;;27.30;83.00;;;;;;4989460;28;20022;-49
2022/07/22 10:56:12;;;;;;;5.13;4.00;;;27.30;83.70;;;;;;4989911;28;20514;-49
2022/07/22 10:58:38;;;;;;;4.82;4.28;;;27.40;83.30;;;;;;4992011;28;20425;-51
2022/07/22 11:01:09;;;;;;;7.63;4.72;;;27.40;82.60;;;;;;4992611;28;20032;-49
2022/07/22 11:03:38;;;;;;;5.75;4.00;;;27.40;82.10;;;;;;4992385;28;20068;-49
2022/07/22 11:06:14;;;;;;;6.05;4.32;;;27.40;83.00;;;;;;4992710;28;20026;-51
2022/07/22 11:08:40;;;;;;;7.68;5.30;;;27.40;82.10;;;;;;4991915;28;20026;-49
2022/07/22 11:11:06;;;;;;;18.23;4.50;;;27.10;82.00;;;;;;4992359;28;20058;-51
2022/07/22 11:13:32;;;;;;;4.30;4.00;;;27.00;82.00;;;;;;4992536;28;20030;-51
2022/07/22 11:16:23;;;;;;;4.35;4.03;;;26.90;81.40;;;;;;4992606;28;20071;-52
2022/07/22 11:18:52;;;;;;;4.88;4.38;;;26.80;82.60;;;;;;4991719;28;20026;-46
2022/07/22 11:21:23;;;;;;;4.20;3.80;;;26.70;80.30;;;;;;4992398;28;20015;-49
2022/07/22 11:23:55;;;;;;;6.63;4.47;;;26.60;80.30;;;;;;4992421;28;20478;-50
2022/07/22 11:26:31;;;;;;;4.85;4.45;;;26.60;81.90;;;;;;4992791;28;20029;-50
2022/07/22 11:28:57;;;;;;;4.32;3.47;;;26.80;81.40;;;;;;4991238;28;20057;-49
2022/07/22 11:31:23;;;;;;;4.53;3.58;;;26.80;80.00;;;;;;4992211;28;20101;-51
2022/07/22 11:33:48;;;;;;;7.72;4.28;;;26.80;81.10;;;;;;4990705;28;20046;-50
2022/07/22 11:36:14;;;;;;;4.90;4.22;;;26.90;80.80;;;;;;4991105;28;20393;-49
2022/07/22 11:38:48;;;;;;;5.70;4.30;;;27.10;79.60;;;;;;4991070;28;20058;-47
2022/07/22 11:41:17;;;;;;;4.53;4.07;;;27.10;80.40;;;;;;4992186;28;20477;-46
2022/07/22 11:43:48;;;;;;;4.68;3.78;;;27.20;81.10;;;;;;4990380;28;20088;-48
2022/07/22 11:46:15;;;;;;;4.70;3.45;;;27.20;78.90;;;;;;4991643;28;20498;-48
2022/07/22 11:48:42;;;;;;;3.95;3.55;;;27.20;78.60;;;;;;4991411;28;20105;-50
2022/07/22 11:51:10;;;;;;;4.07;2.90;;;27.30;79.30;;;;;;4991710;28;20072;-47
2022/07/22 11:53:37;;;;;;;4.55;3.83;;;27.40;75.20;;;;;;4992320;28;20042;-49
2022/07/22 11:56:05;;;;;;;3.63;3.20;;;27.30;76.20;;;;;;4992034;28;20033;-49
2022/07/22 11:58:44;;;;;;;4.50;4.10;;;27.30;75.70;;;;;;4990613;28;20047;-52
2022/07/22 12:01:12;;;;;;;7.60;3.67;;;27.40;75.90;;;;;;4982012;28;20489;-48
2022/07/22 12:03:41;;;;;;;67.32;52.15;;;27.40;76.30;;;;;;4991578;28;20457;-52
2022/07/22 12:06:09;;;;;;;12.50;11.27;;;27.40;74.80;;;;;;5006099;28;20041;-50
2022/07/22 12:08:41;;;;;;;28.75;24.05;;;27.50;74.20;;;;;;4990640;28;20040;-52
2022/07/22 12:11:08;;;;;;;4.25;3.90;;;27.50;74.40;;;;;;4991766;28;20015;-49
2022/07/22 12:13:34;;;;;;;4.72;3.67;;;27.60;75.30;;;;;;4991639;28;20018;-50
2022/07/22 12:15:59;;;;;;;4.47;3.75;;;27.60;75.10;;;;;;4991375;28;20033;-53
2022/07/22 12:18:27;;;;;;;6.93;4.20;;;27.70;77.00;;;;;;5019187;23;20046;-47
2022/07/22 12:20:54;;;;;;;4.35;3.60;;;27.80;77.50;;;;;;5034020;28;20076;-49
2022/07/22 12:23:24;;;;;;;6.32;4.38;;;27.80;76.60;;;;;;5033793;28;20112;-48
2022/07/22 12:25:55;;;;;;;4.32;3.83;;;27.90;77.60;;;;;;5034502;28;20036;-47
2022/07/22 12:28:21;;;;;;;7.28;4.53;;;28.00;77.20;;;;;;5031611;28;20028;-49
2022/07/22 12:30:49;;;;;;;7.00;4.32;;;28.00;76.70;;;;;;5033875;28;20021;-50
2022/07/22 12:33:18;;;;;;;7.15;4.72;;;28.00;76.40;;;;;;5033763;28;20370;-48
2022/07/22 12:35:57;;;;;;;5.47;4.60;;;27.90;77.40;;;;;;5033518;28;20497;-47
2022/07/22 12:38:23;;;;;;;4.47;4.03;;;28.00;77.80;;;;;;5040446;28;20035;-49
2022/07/22 12:40:48;;;;;;;5.82;3.65;;;27.90;78.10;;;;;;5033566;28;20032;-48
2022/07/22 12:43:14;;;;;;;5.47;4.68;;;28.00;78.30;;;;;;5030586;28;20065;-54